Time;durP1;ratioP1;P1;durP2;ratioP2;P2;SDS_P1;SDS_P2;PMS_P1;PMS_P2;Temp;Humidity;BMP_temperature;BMP_pressure;BME280_temperature;BME280_humidity;BME280_pressure;Samples;Min_cycle;Max_cycle;Signal;HPM_P1;HPM_P2
2021/07/05 00:00:52;;;;;;;4.45;4.20;;;;;;;21.07;78.11;101511.41;6260757;28;20227;-76
2021/07/05 00:03:57;;;;;;;3.92;3.80;;;;;;;21.08;77.63;101512.25;6247659;28;20406;-76
2021/07/05 00:07:06;;;;;;;4.07;3.97;;;;;;;20.97;78.82;101519.66;6262050;28;20192;-77
2021/07/05 00:10:16;;;;;;;4.47;4.15;;;;;;;21.03;79.53;101524.13;6261978;28;20197;-76
2021/07/05 00:13:20;;;;;;;4.38;4.10;;;;;;;21.07;79.19;101510.59;6260924;28;20337;-76
2021/07/05 00:16:25;;;;;;;5.65;4.72;;;;;;;21.10;78.50;101505.34;6262321;28;20217;-76
2021/07/05 00:19:30;;;;;;;4.22;3.90;;;;;;;21.16;78.51;101508.94;6265938;28;20244;-77
2021/07/05 00:22:34;;;;;;;4.13;3.85;;;;;;;21.18;78.37;101513.13;6265650;28;20471;-76
2021/07/05 00:25:39;;;;;;;4.20;4.00;;;;;;;21.11;79.36;101507.00;6266604;28;20239;-76
2021/07/05 00:28:43;;;;;;;4.32;4.00;;;;;;;21.09;79.10;101498.09;6265570;28;20192;-76
2021/07/05 00:31:51;;;;;;;4.32;4.13;;;;;;;21.17;78.81;101505.06;6264789;28;20197;-76
2021/07/05 00:34:59;;;;;;;4.40;4.10;;;;;;;21.02;79.29;101499.44;6266072;28;20248;-76
2021/07/05 00:38:05;;;;;;;7.38;4.65;;;;;;;20.90;80.81;101494.09;6265002;28;20425;-76
2021/07/05 00:41:11;;;;;;;5.35;3.83;;;;;;;20.87;80.70;101488.25;6266170;28;20216;-76
2021/07/05 00:44:15;;;;;;;4.18;3.95;;;;;;;20.91;80.67;101484.66;6265898;28;20192;-76
2021/07/05 00:47:21;;;;;;;4.97;4.57;;;;;;;20.89;80.93;101486.88;6265805;28;20248;-76
2021/07/05 00:50:29;;;;;;;4.20;4.10;;;;;;;20.91;81.30;101484.66;6264696;28;20211;-76
2021/07/05 00:53:34;;;;;;;7.57;4.35;;;;;;;20.88;80.85;101479.66;6266010;28;20189;-76
2021/07/05 00:56:38;;;;;;;4.22;3.92;;;;;;;20.89;80.97;101486.88;6266032;28;20184;-76
2021/07/05 00:59:45;;;;;;;4.32;4.20;;;;;;;20.80;81.51;101480.16;6264566;28;20507;-76
2021/07/05 01:02:53;;;;;;;5.47;4.47;;;;;;;20.87;81.49;101472.47;6265300;28;20453;-76
2021/07/05 01:05:59;;;;;;;4.55;4.38;;;;;;;20.72;81.85;101468.78;6239787;28;20540;-76
2021/07/05 01:09:04;;;;;;;4.18;3.88;;;;;;;20.68;82.74;101468.47;6241141;28;20189;-76
2021/07/05 01:12:10;;;;;;;4.95;4.47;;;;;;;20.69;82.86;101466.53;6239632;28;20491;-76
2021/07/05 01:15:18;;;;;;;5.20;4.80;;;;;;;20.62;83.36;101466.75;6240549;28;20186;-76
2021/07/05 01:18:26;;;;;;;4.97;4.50;;;;;;;20.65;83.16;101469.00;6239528;28;20292;-77
2021/07/05 01:21:35;;;;;;;4.47;4.28;;;;;;;20.67;83.21;101471.50;6239364;28;20235;-76
2021/07/05 01:24:42;;;;;;;5.07;4.68;;;;;;;20.51;84.76;101463.09;6239359;28;20552;-76
2021/07/05 01:27:49;;;;;;;5.70;4.50;;;;;;;20.36;86.06;101470.50;6240221;28;20192;-76
2021/07/05 01:30:55;;;;;;;5.38;4.85;;;;;;;20.34;87.02;101456.03;6239637;28;20220;-76
2021/07/05 01:33:59;;;;;;;4.75;4.40;;;;;;;20.42;85.92;101466.63;6240356;28;20217;-76
2021/07/05 01:37:08;;;;;;;4.63;4.45;;;;;;;20.41;86.06;101462.22;6255250;28;20307;-76
2021/07/05 01:40:18;;;;;;;4.18;4.03;;;;;;;20.55;85.01;101463.38;6239934;28;20213;-76
2021/07/05 01:43:24;;;;;;;4.93;4.47;;;;;;;20.59;84.73;101459.00;6254823;28;20571;-76
2021/07/05 01:46:31;;;;;;;4.88;4.60;;;;;;;20.63;84.20;101460.13;6239019;28;20523;-76
2021/07/05 01:49:39;;;;;;;5.18;4.60;;;;;;;20.59;84.93;101465.34;6240310;28;20257;-75
2021/07/05 01:52:44;;;;;;;4.90;4.50;;;;;;;20.60;84.62;101463.41;6240166;28;20185;-76
2021/07/05 01:55:52;;;;;;;4.70;4.40;;;;;;;20.52;85.24;101466.69;6238805;28;20186;-76
2021/07/05 01:58:58;;;;;;;5.22;4.93;;;;;;;20.58;84.66;101462.84;6254743;28;20201;-76
2021/07/05 02:02:08;;;;;;;4.55;4.35;;;;;;;20.57;85.05;101466.72;6239032;28;20237;-76
2021/07/05 02:05:19;;;;;;;6.65;4.35;;;;;;;20.43;86.21;101460.84;6258893;28;20354;-76
2021/07/05 02:08:25;;;;;;;5.07;4.60;;;;;;;20.27;88.04;101466.53;6263118;28;20468;-76
2021/07/05 02:11:31;;;;;;;5.35;5.13;;;;;;;20.40;86.44;101468.84;6263011;28;20220;-75
2021/07/05 02:14:42;;;;;;;4.68;4.50;;;;;;;20.40;87.27;101460.53;6263353;28;20192;-75
2021/07/05 02:17:47;;;;;;;5.25;4.75;;;;;;;20.50;86.16;101477.22;6264130;28;20192;-75
2021/07/05 02:20:59;;;;;;;5.10;4.80;;;;;;;20.48;86.41;101469.19;6263854;28;20208;-75
2021/07/05 02:24:05;;;;;;;4.90;4.50;;;;;;;20.47;86.63;101472.22;6264216;28;20191;-75
2021/07/05 02:27:10;;;;;;;4.93;4.63;;;;;;;20.39;87.07;101469.97;6262483;28;20423;-75
2021/07/05 02:30:17;;;;;;;5.93;5.53;;;;;;;20.54;86.06;101464.50;6262881;28;20195;-75
2021/07/05 02:33:25;;;;;;;5.20;4.90;;;;;;;20.47;87.08;101461.97;6262829;28;20185;-75
2021/07/05 02:36:29;;;;;;;5.25;4.97;;;;;;;20.52;86.65;101463.91;6245114;28;20263;-74
2021/07/05 02:39:35;;;;;;;5.18;4.95;;;;;;;20.55;86.46;101455.06;6262017;28;20407;-75
2021/07/05 02:42:43;;;;;;;5.45;4.97;;;;;;;20.45;86.84;101452.25;6262094;28;20473;-75
2021/07/05 02:45:50;;;;;;;5.30;4.80;;;;;;;20.45;87.57;101453.09;6263097;28;20298;-75
2021/07/05 02:48:55;;;;;;;4.90;4.70;;;;;;;20.53;86.98;101460.06;6263382;28;20185;-75
2021/07/05 02:52:00;;;;;;;5.13;4.72;;;;;;;20.56;87.33;101465.06;6263073;28;20189;-75
2021/07/05 02:55:11;;;;;;;5.28;4.88;;;;;;;20.49;88.32;101464.47;6263606;28;20307;-75
2021/07/05 02:58:16;;;;;;;5.47;4.97;;;;;;;20.46;88.34;101459.47;6262243;28;20280;-75
2021/07/05 03:01:22;;;;;;;5.18;4.65;;;;;;;20.36;89.56;101459.41;6252731;28;20555;-75
2021/07/05 03:04:29;;;;;;;5.22;4.93;;;;;;;20.38;89.41;101459.97;6256916;28;20236;-75
2021/07/05 03:07:34;;;;;;;5.40;5.13;;;;;;;20.52;88.55;101458.38;6262849;28;20267;-75
2021/07/05 03:10:41;;;;;;;5.65;5.32;;;;;;;20.51;88.58;101446.47;6261712;28;20530;-75
2021/07/05 03:13:47;;;;;;;5.28;4.95;;;;;;;20.35;90.46;101441.94;6263035;28;20231;-76
2021/07/05 03:16:51;;;;;;;4.82;4.63;;;;;;;20.47;89.33;101458.34;6262656;28;20252;-75
2021/07/05 03:19:55;;;;;;;5.07;4.78;;;;;;;20.50;89.53;101452.28;6261673;28;20356;-75
2021/07/05 03:23:01;;;;;;;5.30;5.03;;;;;;;20.60;88.61;101449.56;6261546;28;20539;-75
2021/07/05 03:26:10;;;;;;;5.43;5.03;;;;;;;20.58;89.11;101457.31;6262463;28;20196;-75
2021/07/05 03:29:14;;;;;;;5.35;4.97;;;;;;;20.57;89.39;101450.09;6261698;28;20191;-75
2021/07/05 03:32:19;;;;;;;5.82;5.30;;;;;;;20.59;89.74;101450.69;6262810;28;20227;-75
2021/07/05 03:35:23;;;;;;;5.45;5.00;;;;;;;20.62;89.86;101452.09;6262873;28;20184;-75
2021/07/05 03:38:27;;;;;;;5.20;4.95;;;;;;;20.70;88.66;101443.25;6262809;28;20304;-75
2021/07/05 03:41:35;;;;;;;5.22;4.85;;;;;;;20.77;88.80;101447.44;6261351;28;20223;-75
2021/07/05 03:44:39;;;;;;;4.80;4.50;;;;;;;20.65;89.41;101444.03;6262768;28;20252;-75
2021/07/05 03:47:44;;;;;;;5.07;4.85;;;;;;;20.72;88.62;101441.88;6262403;28;20227;-75
2021/07/05 03:50:48;;;;;;;6.28;5.05;;;;;;;20.75;88.81;101441.31;6261203;28;20450;-75
2021/07/05 03:53:52;;;;;;;5.03;4.63;;;;;;;20.81;88.21;101440.25;6266089;28;20223;-75
2021/07/05 03:56:58;;;;;;;4.53;4.32;;;;;;;20.88;87.53;101431.66;6266236;28;20414;-75
2021/07/05 04:00:08;;;;;;;5.10;4.60;;;;;;;20.87;87.31;101433.63;6267038;28;20185;-75
2021/07/05 04:03:17;;;;;;;4.60;4.30;;;;;;;20.91;87.12;101423.66;6265871;28;20516;-75
2021/07/05 04:06:23;;;;;;;4.63;4.32;;;;;;;20.98;85.91;101429.78;6266948;28;20217;-75
2021/07/05 04:09:27;;;;;;;4.80;4.50;;;;;;;21.02;85.31;101425.38;6267205;28;20185;-75
2021/07/05 04:12:34;;;;;;;5.32;4.45;;;;;;;21.06;85.45;101425.66;6265912;28;20539;-75
2021/07/05 04:15:43;;;;;;;4.03;3.83;;;;;;;21.08;85.25;101426.25;6266972;28;20262;-75
2021/07/05 04:18:47;;;;;;;5.18;4.70;;;;;;;21.23;84.80;101403.25;6266916;28;20234;-75
2021/07/05 04:21:52;;;;;;;3.55;3.38;;;;;;;21.27;83.59;101415.47;6267149;28;20286;-75
2021/07/05 04:24:56;;;;;;;4.28;3.90;;;;;;;21.35;83.08;101426.03;6265438;28;20491;-75
2021/07/05 04:28:04;;;;;;;4.93;3.50;;;;;;;21.42;82.68;101421.03;6266667;28;20239;-75
2021/07/05 04:31:09;;;;;;;4.30;3.47;;;;;;;21.54;82.40;101422.47;6266530;28;20268;-75
2021/07/05 04:34:13;;;;;;;5.88;3.60;;;;;;;21.61;80.86;101419.41;6265215;28;20531;-75
2021/07/05 04:37:18;;;;;;;3.88;3.63;;;;;;;21.67;80.84;101421.09;6265124;28;20185;-75
2021/07/05 04:40:25;;;;;;;3.33;3.15;;;;;;;21.71;79.36;101427.75;6266110;28;20223;-75
2021/07/05 04:43:31;;;;;;;3.92;3.47;;;;;;;21.86;79.83;101413.91;6265005;28;20378;-75
2021/07/05 04:46:35;;;;;;;3.90;3.70;;;;;;;21.99;79.26;101418.91;6266000;28;20185;-75
2021/07/05 04:49:39;;;;;;;3.63;3.53;;;;;;;21.95;78.11;101417.81;6264837;28;20476;-75
2021/07/05 04:52:47;;;;;;;3.53;3.22;;;;;;;22.02;78.30;101409.19;6264906;28;20476;-76
2021/07/05 04:55:52;;;;;;;4.20;3.65;;;;;;;21.94;78.60;101410.56;6266192;28;20248;-75
2021/07/05 04:58:57;;;;;;;4.30;3.65;;;;;;;21.95;78.40;101406.69;6265765;28;20184;-75
2021/07/05 05:02:01;;;;;;;3.67;3.33;;;;;;;22.02;78.50;101401.69;6264954;28;20224;-75
2021/07/05 05:05:07;;;;;;;4.05;3.80;;;;;;;22.15;77.87;101412.22;6264899;28;20228;-75
2021/07/05 05:08:13;;;;;;;3.53;3.33;;;;;;;22.13;77.37;101414.47;6265840;28;20189;-75
2021/07/05 05:11:21;;;;;;;6.70;3.78;;;;;;;22.06;77.97;101402.78;6265287;28;20223;-76
2021/07/05 05:14:32;;;;;;;4.25;3.78;;;;;;;22.01;77.68;101405.56;6265753;28;20263;-75
2021/07/05 05:17:37;;;;;;;3.88;3.58;;;;;;;22.00;78.19;101403.91;6265065;28;20368;-75
2021/07/05 05:20:41;;;;;;;6.63;3.67;;;;;;;22.01;77.63;101408.34;6265229;28;20192;-75
2021/07/05 05:23:45;;;;;;;3.53;3.35;;;;;;;22.04;78.23;101396.66;6264035;28;20412;-75
2021/07/05 05:26:49;;;;;;;4.22;3.83;;;;;;;22.10;78.01;101395.56;6264033;28;20248;-75
2021/07/05 05:29:55;;;;;;;3.58;3.38;;;;;;;22.06;77.90;101400.00;6265001;28;20252;-75
2021/07/05 05:33:01;;;;;;;3.78;3.63;;;;;;;22.21;77.51;101399.97;6265332;28;20227;-75
2021/07/05 05:36:08;;;;;;;3.83;3.63;;;;;;;22.10;77.34;101395.56;6264861;28;20184;-75
2021/07/05 05:39:13;;;;;;;4.65;3.50;;;;;;;22.19;77.27;101385.53;6264750;28;20185;-75
2021/07/05 05:42:17;;;;;;;6.07;3.70;;;;;;;22.15;77.59;101390.00;6263466;28;20428;-75
2021/07/05 05:45:24;;;;;;;4.35;3.80;;;;;;;22.17;77.55;101384.97;6264697;28;20192;-76
2021/07/05 05:48:31;;;;;;;3.72;3.55;;;;;;;22.21;77.09;101383.28;6264915;28;20243;-75
2021/07/05 05:51:37;;;;;;;5.25;3.80;;;;;;;22.29;77.00;101393.03;6264538;28;20185;-75
2021/07/05 05:54:43;;;;;;;4.47;4.13;;;;;;;22.33;76.64;101397.75;6264302;28;20191;-75
2021/07/05 05:57:47;;;;;;;4.00;3.50;;;;;;;22.27;76.72;101375.78;6264512;28;20188;-75
2021/07/05 06:00:53;;;;;;;4.80;3.85;;;;;;;22.35;76.67;101384.38;6263022;28;20192;-75
2021/07/05 06:03:57;;;;;;;5.40;3.97;;;;;;;22.32;76.49;101390.50;6250056;28;20236;-76
2021/07/05 06:07:01;;;;;;;6.03;3.85;;;;;;;22.39;77.25;101399.38;6245999;28;20260;-75
2021/07/05 06:10:09;;;;;;;4.18;3.85;;;;;;;22.62;76.10;101386.84;6262948;28;20379;-75
2021/07/05 06:13:16;;;;;;;6.75;3.60;;;;;;;22.72;75.54;101383.19;6262958;28;20480;-75
2021/07/05 06:16:25;;;;;;;5.15;4.00;;;;;;;22.87;74.77;101385.91;6261349;28;20224;-75
2021/07/05 06:19:30;;;;;;;8.63;3.90;;;;;;;23.11;74.78;101392.47;6263580;28;20247;-76
2021/07/05 06:22:40;;;;;;;3.97;3.58;;;;;;;23.27;73.90;101385.66;6262577;28;20516;-75
2021/07/05 06:25:44;;;;;;;6.75;3.90;;;;;;;23.40;73.21;101390.63;6263611;28;20189;-75
2021/07/05 06:28:50;;;;;;;4.10;3.80;;;;;;;23.48;73.07;101387.22;6263721;28;20191;-75
2021/07/05 06:31:55;;;;;;;5.60;3.83;;;;;;;23.63;73.05;101377.91;6262550;28;20480;-76
2021/07/05 06:35:02;;;;;;;4.60;3.80;;;;;;;23.77;71.98;101383.66;6263671;28;20185;-76
2021/07/05 06:38:07;;;;;;;3.95;3.60;;;;;;;23.82;71.60;101389.19;6262389;28;20185;-76
2021/07/05 06:41:11;;;;;;;3.65;3.53;;;;;;;23.96;71.17;101387.41;6263185;28;20248;-76
2021/07/05 06:44:16;;;;;;;3.78;3.65;;;;;;;24.12;71.39;101386.97;6262192;28;20393;-76
2021/07/05 06:47:21;;;;;;;4.55;4.20;;;;;;;24.12;70.65;101377.78;6262404;28;20530;-76
2021/07/05 06:50:26;;;;;;;3.80;3.67;;;;;;;24.22;70.63;101380.47;6263243;28;20254;-76
2021/07/05 06:53:30;;;;;;;4.60;3.70;;;;;;;24.22;70.57;101388.84;6262598;28;20189;-77
2021/07/05 06:56:35;;;;;;;5.63;4.28;;;;;;;24.37;69.92;101377.50;6263143;28;20191;-76
2021/07/05 06:59:40;;;;;;;3.65;3.50;;;;;;;24.41;69.21;101384.19;6262019;28;20537;-76
2021/07/05 07:02:48;;;;;;;5.32;4.45;;;;;;;24.46;69.85;101384.13;6262974;28;20229;-76
2021/07/05 07:05:52;;;;;;;6.57;4.97;;;;;;;24.50;69.17;101374.00;6262792;28;20456;-77
2021/07/05 07:08:58;;;;;;;3.85;3.70;;;;;;;24.71;69.16;101369.84;6262126;28;20207;-75
2021/07/05 07:12:03;;;;;;;5.40;3.95;;;;;;;24.78;68.82;101361.97;6263173;28;20223;-76
2021/07/05 07:15:09;;;;;;;4.57;4.28;;;;;;;24.88;69.36;101361.84;6261541;28;20189;-77
2021/07/05 07:18:43;;;;;;;4.50;4.20;;;;;;;24.84;69.24;101366.38;6262991;28;20217;-76
2021/07/05 07:21:50;;;;;;;8.77;4.20;;;;;;;24.86;68.52;101363.28;6262692;28;20185;-76
2021/07/05 07:24:57;;;;;;;4.20;4.00;;;;;;;25.03;68.77;101362.78;6261463;28;20213;-76
2021/07/05 07:28:01;;;;;;;4.53;4.18;;;;;;;25.16;68.74;101362.03;6266489;28;20184;-76
2021/07/05 07:31:05;;;;;;;4.22;4.13;;;;;;;25.15;68.05;101365.94;6250245;28;20204;-76
2021/07/05 07:34:13;;;;;;;7.03;4.28;;;;;;;25.23;68.04;101348.53;6268156;28;20197;-76
2021/07/05 07:37:17;;;;;;;4.25;4.00;;;;;;;25.39;67.44;101349.94;6267802;28;20184;-76
2021/07/05 07:40:23;;;;;;;8.68;4.10;;;;;;;25.47;67.06;101349.31;6266593;28;20377;-76
2021/07/05 07:43:27;;;;;;;4.70;4.20;;;;;;;25.63;66.24;101350.69;6267517;28;20250;-76
2021/07/05 07:46:35;;;;;;;4.95;4.65;;;;;;;25.67;65.20;101356.50;6267761;28;20185;-77
2021/07/05 07:49:45;;;;;;;7.00;4.40;;;;;;;25.76;63.01;101355.50;6267563;28;20185;-76
2021/07/05 07:52:55;;;;;;;10.20;4.60;;;;;;;25.83;62.27;101364.34;6266298;28;20185;-75
2021/07/05 07:56:00;;;;;;;8.20;4.70;;;;;;;25.96;61.98;101349.53;6267266;28;20260;-76
2021/07/05 07:59:04;;;;;;;9.00;3.70;;;;;;;26.06;60.38;101343.75;6266750;28;20184;-76
2021/07/05 08:02:13;;;;;;;4.45;4.20;;;;;;;26.13;61.34;101353.75;6266354;28;20526;-76
2021/07/05 08:05:20;;;;;;;4.72;4.28;;;;;;;26.19;60.56;101346.94;6266939;28;20243;-76
2021/07/05 08:08:26;;;;;;;4.70;3.70;;;;;;;26.29;60.36;101341.13;6267494;28;20194;-76
2021/07/05 08:11:31;;;;;;;8.55;4.40;;;;;;;26.30;60.18;101353.97;6266617;28;20510;-76
2021/07/05 08:14:35;;;;;;;9.57;4.53;;;;;;;26.32;60.51;101346.13;6267647;28;20195;-76
2021/07/05 08:17:41;;;;;;;4.95;4.47;;;;;;;26.30;59.99;101348.38;6267287;28;20239;-76
2021/07/05 08:20:47;;;;;;;16.02;4.55;;;;;;;26.24;60.70;101349.63;6267021;28;20191;-76
2021/07/05 08:23:51;;;;;;;8.38;5.03;;;;;;;26.27;61.09;101346.22;6267221;28;20216;-76
2021/07/05 08:27:00;;;;;;;4.57;4.15;;;;;;;26.24;60.52;101349.63;6266647;28;20254;-76
2021/07/05 08:30:05;;;;;;;4.70;4.25;;;;;;;26.24;60.29;101332.84;6265398;28;20185;-76
2021/07/05 08:33:18;;;;;;;4.85;4.38;;;;;;;26.30;60.52;101337.19;6266357;28;20192;-76
2021/07/05 08:36:23;;;;;;;11.10;4.82;;;;;;;26.19;60.09;101341.34;6266664;28;20188;-75
2021/07/05 08:39:27;;;;;;;22.92;4.95;;;;;;;26.17;58.81;101338.84;6265260;28;20193;-77
2021/07/05 08:42:32;;;;;;;19.92;4.55;;;;;;;26.22;59.29;101324.75;6265905;28;20191;-74
2021/07/05 08:45:39;;;;;;;5.22;4.18;;;;;;;26.23;56.54;101325.59;6266241;28;20220;-75
2021/07/05 08:48:48;;;;;;;5.38;3.75;;;;;;;26.21;55.57;101327.88;6264985;28;20216;-74
2021/07/05 08:51:56;;;;;;;15.95;3.85;;;;;;;26.21;52.94;101327.88;6264667;28;20357;-75
2021/07/05 08:55:02;;;;;;;6.07;3.80;;;;;;;26.15;52.81;101337.50;6265129;28;20189;-76
2021/07/05 08:58:08;;;;;;;4.00;3.70;;;;;;;26.17;51.83;101332.44;6265528;28;20185;-75
2021/07/05 09:01:15;;;;;;;13.98;3.40;;;;;;;26.27;53.35;101327.44;6240571;28;20202;-75
2021/07/05 09:04:21;;;;;;;4.85;3.50;;;;;;;26.36;54.29;101330.38;6257101;28;20321;-75
2021/07/05 09:07:27;;;;;;;4.25;4.00;;;;;;;26.36;55.18;101335.97;6265240;28;20468;-74
2021/07/05 09:10:45;;;;;;;6.40;3.60;;;;;;;26.33;54.99;101331.81;6264918;28;20207;-75
2021/07/05 09:13:52;;;;;;;3.80;3.50;;;;;;;26.32;52.12;101329.34;6264638;28;20185;-74
2021/07/05 09:16:57;;;;;;;6.43;3.53;;;;;;;26.34;49.78;101332.66;6265257;28;20185;-75
2021/07/05 09:20:18;;;;;;;13.85;3.03;;;;;;;26.35;49.59;101335.13;6265122;28;20289;-75
2021/07/05 09:23:27;;;;;;;3.13;3.05;;;;;;;26.41;50.71;101338.66;6264997;28;20185;-75
2021/07/05 09:26:37;;;;;;;19.65;4.20;;;;;;;26.26;50.60;101320.22;6265147;28;20311;-75
2021/07/05 09:29:43;;;;;;;3.17;2.97;;;;;;;26.29;49.97;101324.34;6263846;28;20514;-75
2021/07/05 09:32:50;;;;;;;11.98;3.55;;;;;;;26.30;50.19;101326.84;6265169;28;20260;-76
2021/07/05 09:35:56;;;;;;;11.60;3.65;;;;;;;26.37;51.16;101332.03;6264903;28;20195;-76
2021/07/05 09:39:11;;;;;;;7.38;2.72;;;;;;;26.35;49.84;101323.09;6264119;28;20307;-76
2021/07/05 09:42:15;;;;;;;5.85;3.45;;;;;;;26.38;49.63;101328.91;6264914;28;20212;-75
2021/07/05 09:45:30;;;;;;;5.07;4.78;;;;;;;26.39;50.02;101332.53;6264780;28;20277;-76
2021/07/05 09:48:43;;;;;;;3.00;2.90;;;;;;;26.36;49.34;101333.16;6265174;28;20185;-75
2021/07/05 09:52:07;;;;;;;15.18;3.33;;;;;;;26.28;48.49;101325.50;6264453;28;20252;-75
2021/07/05 09:55:16;;;;;;;3.13;2.70;;;;;;;26.41;48.71;101324.66;6263211;28;20476;-76
2021/07/05 09:58:31;;;;;;;8.65;3.72;;;;;;;26.50;48.46;101320.00;6264248;28;20192;-76
2021/07/05 10:01:40;;;;;;;7.68;3.45;;;;;;;26.56;48.83;101318.75;6264254;28;20201;-76
2021/07/05 10:04:49;;;;;;;11.20;3.45;;;;;;;26.57;49.36;101320.41;6263664;28;20328;-76
2021/07/05 10:08:02;;;;;;;14.40;3.65;;;;;;;26.61;49.32;101321.44;6264320;28;20185;-75
2021/07/05 10:11:08;;;;;;;7.57;3.40;;;;;;;26.57;48.65;101320.41;6264094;28;20265;-76
2021/07/05 10:14:20;;;;;;;8.15;3.47;;;;;;;26.62;48.81;101323.94;6263540;28;20186;-75
2021/07/05 10:17:28;;;;;;;6.72;3.53;;;;;;;26.63;47.35;101324.78;6261529;28;20303;-75
2021/07/05 10:20:34;;;;;;;8.93;3.30;;;;;;;26.51;47.98;101327.25;6263383;28;20192;-75
2021/07/05 10:23:39;;;;;;;5.60;3.20;;;;;;;26.59;48.44;101330.16;6262538;28;20569;-76
2021/07/05 10:26:45;;;;;;;5.75;3.08;;;;;;;26.47;46.88;101317.84;6262603;28;20511;-76
2021/07/05 10:29:51;;;;;;;3.60;3.30;;;;;;;26.36;46.57;101313.56;6263886;28;20252;-76
2021/07/05 10:32:56;;;;;;;6.60;3.17;;;;;;;26.39;47.38;101312.97;6263726;28;20192;-76
2021/07/05 10:36:06;;;;;;;12.57;3.88;;;;;;;26.45;48.95;101311.72;6263229;28;20262;-76
2021/07/05 10:39:11;;;;;;;7.82;3.55;;;;;;;26.43;48.35;101309.22;6263454;28;20217;-75
2021/07/05 10:42:31;;;;;;;4.47;3.58;;;;;;;26.45;48.94;101301.34;6263111;28;20249;-75
2021/07/05 10:45:41;;;;;;;11.90;3.50;;;;;;;26.46;48.75;101290.97;6262777;28;20371;-75
2021/07/05 10:48:45;;;;;;;7.93;3.42;;;;;;;26.39;48.72;101304.56;6263550;28;20189;-75
2021/07/05 10:51:49;;;;;;;3.30;3.20;;;;;;;26.38;48.58;101295.34;6262919;28;20256;-75
2021/07/05 10:54:55;;;;;;;4.68;3.30;;;;;;;26.48;50.46;101288.69;6262834;28;20263;-77
2021/07/05 10:58:01;;;;;;;5.30;3.30;;;;;;;26.54;50.83;101281.84;6263060;28;20217;-76
2021/07/05 11:01:07;;;;;;;4.20;3.85;;;;;;;26.48;50.28;101305.47;6262136;28;20216;-76
2021/07/05 11:04:20;;;;;;;6.25;3.47;;;;;;;26.53;50.29;101285.78;6262433;28;20228;-75
2021/07/05 11:07:43;;;;;;;4.88;3.53;;;;;;;26.47;50.39;101282.28;6262942;28;20209;-78
2021/07/05 11:10:48;;;;;;;6.63;3.28;;;;;;;26.40;50.59;101298.66;6261755;28;20322;-76
2021/07/05 11:14:14;;;;;;;5.60;3.80;;;;;;;26.38;51.44;101289.75;6262671;28;20188;-75
2021/07/05 11:17:25;;;;;;;5.50;3.47;;;;;;;26.31;50.75;101288.50;6262371;28;20196;-75
2021/07/05 11:20:40;;;;;;;5.05;3.13;;;;;;;26.35;50.76;101300.72;6261406;28;20185;-76
2021/07/05 11:24:14;;;;;;;4.97;3.80;;;;;;;26.33;51.47;101281.47;6262498;28;20191;-76
2021/07/05 11:27:29;;;;;;;9.20;3.88;;;;;;;26.38;51.39;101284.16;6245830;28;20231;-75
2021/07/05 11:30:40;;;;;;;11.93;4.13;;;;;;;26.40;51.28;101290.25;6262838;28;20248;-76
2021/07/05 11:33:45;;;;;;;4.38;3.65;;;;;;;26.55;51.38;101287.13;6261899;28;20192;-76
2021/07/05 11:36:51;;;;;;;5.38;3.40;;;;;;;26.68;50.04;101277.09;6262324;28;20227;-75
2021/07/05 11:39:59;;;;;;;8.00;3.70;;;;;;;26.73;50.64;101288.16;6262082;28;20264;-77
2021/07/05 11:43:04;;;;;;;10.75;4.00;;;;;;;26.73;51.28;101282.56;6263080;28;20184;-77
2021/07/05 11:46:17;;;;;;;5.85;3.95;;;;;;;26.70;50.81;101280.38;6261875;28;20495;-77
2021/07/05 11:49:24;;;;;;;4.07;3.72;;;;;;;26.61;51.33;101276.66;6262031;28;20185;-76
2021/07/05 11:52:30;;;;;;;8.27;3.72;;;;;;;26.72;51.84;101272.50;6261180;28;20472;-77
2021/07/05 11:55:35;;;;;;;7.78;3.70;;;;;;;26.78;51.04;101287.25;6262204;28;20503;-76
2021/07/05 11:58:41;;;;;;;7.22;3.67;;;;;;;26.84;48.86;101264.41;6262074;28;20191;-75
2021/07/05 12:01:46;;;;;;;3.83;3.40;;;;;;;26.90;47.54;101260.34;6262108;28;20506;-75
2021/07/05 12:04:51;;;;;;;8.38;3.72;;;;;;;26.95;49.00;101265.84;6262160;28;20306;-75
2021/07/05 12:08:01;;;;;;;3.95;3.70;;;;;;;27.01;49.01;101264.59;6260791;28;20216;-76
2021/07/05 12:11:06;;;;;;;14.23;3.67;;;;;;;27.01;48.85;101269.34;6260910;28;20510;-75
2021/07/05 12:14:17;;;;;;;4.07;3.72;;;;;;;26.90;49.26;101263.16;6263076;28;20185;-76
2021/07/05 12:17:23;;;;;;;3.88;3.50;;;;;;;26.87;48.57;101257.34;6266890;28;20189;-76
2021/07/05 12:20:32;;;;;;;16.17;3.90;;;;;;;26.95;48.32;101259.41;6266678;28;20188;-75
2021/07/05 12:23:38;;;;;;;4.15;3.72;;;;;;;27.07;48.72;101262.47;6266522;28;20192;-75
2021/07/05 12:26:49;;;;;;;5.60;3.70;;;;;;;27.04;49.20;101258.31;6266652;28;20208;-76
2021/07/05 12:29:58;;;;;;;5.25;3.88;;;;;;;27.08;49.51;101253.75;6247711;28;20232;-75
2021/07/05 12:33:07;;;;;;;6.00;3.72;;;;;;;26.98;49.94;101254.00;6265006;28;20185;-75
2021/07/05 12:36:14;;;;;;;6.50;3.70;;;;;;;27.15;49.43;101264.50;6265073;28;20480;-76
2021/07/05 12:39:18;;;;;;;11.90;3.83;;;;;;;27.23;49.49;101270.19;6266454;28;20518;-76
2021/07/05 12:42:36;;;;;;;6.95;3.20;;;;;;;27.09;46.20;101261.00;6267332;28;20254;-76
2021/07/05 12:45:44;;;;;;;9.23;4.18;;;;;;;27.25;46.20;101259.47;6265324;28;20217;-76
2021/07/05 12:48:52;;;;;;;16.85;4.35;;;;;;;27.23;48.08;101253.38;6265665;28;20284;-76
2021/07/05 12:51:56;;;;;;;24.80;4.25;;;;;;;27.38;49.15;101256.94;6265904;28;20231;-75
2021/07/05 12:55:20;;;;;;;5.93;3.80;;;;;;;27.42;51.26;101252.38;6264887;28;20296;-75
2021/07/05 12:58:46;;;;;;;12.30;4.10;;;;;;;27.45;49.83;101262.97;6265741;28;20220;-76
2021/07/05 13:01:51;;;;;;;9.05;4.28;;;;;;;27.24;48.67;101263.44;6244802;28;20377;-76
2021/07/05 13:05:09;;;;;;;24.63;4.90;;;;;;;27.31;49.25;101263.00;6265345;28;20232;-75
2021/07/05 13:08:28;;;;;;;18.13;4.57;;;;;;;27.08;48.69;101253.75;6264904;28;20286;-75
2021/07/05 13:11:40;;;;;;;38.20;5.25;;;;;;;27.09;49.42;101254.59;6265233;28;20190;-75
2021/07/05 13:14:47;;;;;;;10.23;4.53;;;;;;;27.04;49.45;101252.72;6263826;28;20185;-75
2021/07/05 13:17:52;;;;;;;10.98;4.60;;;;;;;26.93;48.95;101245.72;6263642;28;20252;-75
2021/07/05 13:20:58;;;;;;;9.00;4.15;;;;;;;26.90;49.39;101235.16;6264511;28;20366;-74
2021/07/05 13:24:16;;;;;;;4.70;3.95;;;;;;;27.04;50.09;101249.13;6263535;28;20197;-75
2021/07/05 13:27:23;;;;;;;13.68;4.18;;;;;;;26.85;50.96;101249.28;6264889;28;20279;-76
2021/07/05 13:30:31;;;;;;;4.32;4.03;;;;;;;26.74;51.57;101245.03;6264616;28;20185;-75
2021/07/05 13:33:36;;;;;;;4.05;3.83;;;;;;;26.71;51.66;101231.66;6246458;28;20207;-75
2021/07/05 13:36:52;;;;;;;4.28;3.95;;;;;;;26.78;51.26;101243.28;6264077;28;20362;-74
2021/07/05 13:39:59;;;;;;;5.68;4.30;;;;;;;27.04;51.49;101240.72;6263419;28;20448;-77
2021/07/05 13:43:07;;;;;;;8.10;4.22;;;;;;;26.97;50.09;101235.53;6263518;28;20216;-74
2021/07/05 13:46:14;;;;;;;4.40;4.00;;;;;;;27.20;49.89;101234.41;6264666;28;20192;-77
2021/07/05 13:49:18;;;;;;;6.55;3.75;;;;;;;28.33;46.35;101231.88;6264573;28;20185;-76
2021/07/05 13:52:33;;;;;;;8.65;3.85;;;;;;;29.77;42.25;101232.22;6263243;28;20185;-76
2021/07/05 13:55:49;;;;;;;6.95;3.63;;;;;;;29.40;42.49;101235.81;6263913;28;20217;-74
2021/07/05 13:58:56;;;;;;;4.30;3.90;;;;;;;28.77;43.81;101244.03;6263150;28;20275;-76
2021/07/05 14:02:00;;;;;;;3.70;3.42;;;;;;;28.88;44.17;101245.38;6263316;28;20267;-74
2021/07/05 14:05:15;;;;;;;3.47;3.33;;;;;;;28.34;45.68;101236.34;6263958;28;20236;-75
2021/07/05 14:08:21;;;;;;;5.78;4.22;;;;;;;28.23;45.75;101237.81;6263527;28;20284;-75
2021/07/05 14:11:26;;;;;;;7.00;3.90;;;;;;;28.17;46.40;101241.91;6263311;28;20184;-75
2021/07/05 14:14:30;;;;;;;6.07;3.72;;;;;;;27.97;47.21;101220.03;6263869;28;20216;-75
2021/07/05 14:17:35;;;;;;;6.53;3.38;;;;;;;27.82;47.57;101235.31;6262652;28;20476;-75
2021/07/05 14:20:43;;;;;;;14.07;4.20;;;;;;;27.73;48.07;101225.22;6263539;28;20193;-75
2021/07/05 14:23:50;;;;;;;4.18;3.67;;;;;;;27.77;48.75;101234.63;6263708;28;20185;-75
2021/07/05 14:26:56;;;;;;;12.85;4.05;;;;;;;27.61;49.28;101234.19;6262124;28;20216;-75
2021/07/05 14:30:01;;;;;;;3.88;3.67;;;;;;;27.51;49.69;101244.84;6263384;28;20216;-75